KSJT

San Angelo Regional Airport

Airport
ICAO code
KSJT
Summary
ICAO Region
NAM
ICAO Territory
Location

San Angelo, Texas,

Coordinates
31° 21' 27" N , 100° 29' 46" W
KCC
Airport WX
Sand Storm
Metar
KSJT 221651Z 29016G21KT 10SM CLR 23/M02 A2995 RMK AO2 SLP124 T02331017

Description

San Angelo Regional Airport, also known as Mathis Field, is a public use airport serving the city of San Angelo, in Tom Green County, Texas.

Climatology

Semi-arid Steppe climate (Köppen climate classification BSk) - Little precipitation, hot summers and cold winters, sometimes with large changes in temperature in a 24 hour period.

Runways

Designator Length Width Surface Rops
9/27 1342 23 ASP Yes/Yes
3/21 1810 46 ASP Yes/Yes
18/36 2453 46 ASP Yes/Yes

Airport map

Aerial View

SKYbrary Partners:

Safety knowledge contributed by: